Chronik & Geschichte

Boeing Stearman am Flugplatz Konstanz

Mit seiner 107-jährigen Geschichte ist Konstanz der älteste Verkehrslandeplatz Deutschlands. Lesen Sie unsere Festschrift zum 100-jährigen Platzjubiläum oder entdecken Sie die ausführliche Flugplatzchronik auf der Website der Initiative PRO Flugplatz Konstanz.

Live am Platz

Die Bilder unserer Webcams werden alle 5 Minuten aktualisiert.

Sonnenaufgang:

06:30 UTC / 07:30 Lokal

Sonnenuntergang:

15:46 UTC / 16:46 Lokal

METAR (17.11.2018 06:20 UTC):

EDNY 170620Z 08004KT 8000 OVC022 03/M00 Q1024
MVFR

TAF (17.11.2018 05:00 UTC):

TAF EDNY 170500Z 1706/1806 05008KT 9999 BKN020

Alle Angaben unverbindlich und ohne Gewähr. Zeiten genähert.

Für den Verkehrslandeplatz Konstanz werden keine offiziellen Wetterinformationen herausgegeben. Daher werden zur Orientierung Daten des nahegelegenen Flughafens Friedrichshafen dargestellt.